createdAt,value
2022-10-18T00:01:50.772Z,28.77
2022-10-18T00:05:13.802Z,27.75
2022-10-18T00:08:45.546Z,30.53
2022-10-18T00:11:55.397Z,30.77
2022-10-18T00:14:58.528Z,25.85
2022-10-18T00:18:09.255Z,26.77
2022-10-18T00:21:26.977Z,27.95
2022-10-18T00:24:33.289Z,32.37
2022-10-18T00:27:36.332Z,29.73
2022-10-18T00:30:41.223Z,28.48
2022-10-18T00:34:03.999Z,47.28
2022-10-18T00:37:18.540Z,27.27
2022-10-18T00:40:40.721Z,30.50
2022-10-18T00:44:10.623Z,30.37
2022-10-18T00:47:33.746Z,29.63
2022-10-18T00:50:55.775Z,30.55
2022-10-18T00:54:11.772Z,28.60
2022-10-18T00:57:33.661Z,28.67
2022-10-18T01:01:03.768Z,29.33
2022-10-18T01:04:27.630Z,27.63
2022-10-18T01:07:50.765Z,26.85
2022-10-18T01:11:36.858Z,29.48
2022-10-18T01:15:18.494Z,28.60
2022-10-18T01:18:41.059Z,30.83
2022-10-18T01:22:14.230Z,28.02
2022-10-18T01:25:49.538Z,26.70
2022-10-18T01:29:30.446Z,27.80
2022-10-18T01:33:00.608Z,26.00
2022-10-18T01:36:29.977Z,29.40
2022-10-18T01:39:46.755Z,29.58
2022-10-18T01:43:02.890Z,26.52
2022-10-18T01:46:25.675Z,28.90
2022-10-18T01:49:45.634Z,28.00
2022-10-18T01:53:08.634Z,29.87
2022-10-18T01:56:32.626Z,24.80
2022-10-18T02:00:10.561Z,26.35
2022-10-18T02:03:22.690Z,26.20
2022-10-18T02:06:38.509Z,24.83
2022-10-18T02:09:59.885Z,24.23
2022-10-18T02:13:16.683Z,26.92
2022-10-18T02:16:24.747Z,26.88
2022-10-18T02:19:43.388Z,26.27
2022-10-18T02:22:56.454Z,26.27
2022-10-18T02:26:18.287Z,26.70
2022-10-18T02:29:37.358Z,25.60
2022-10-18T02:33:01.426Z,26.20
2022-10-18T02:36:35.497Z,23.80
2022-10-18T02:39:55.496Z,23.80
2022-10-18T02:43:10.420Z,27.00
2022-10-18T02:46:21.232Z,25.85
2022-10-18T02:49:44.513Z,24.30
2022-10-18T02:53:14.427Z,28.15
2022-10-18T02:56:37.436Z,23.83
2022-10-18T02:59:59.421Z,23.87
2022-10-18T03:03:22.418Z,28.15
2022-10-18T03:06:45.270Z,27.88
2022-10-18T03:10:04.698Z,24.17
2022-10-18T03:13:21.077Z,24.93
2022-10-18T03:16:38.478Z,24.50
2022-10-18T03:20:01.484Z,23.55
2022-10-18T03:23:31.296Z,26.42
2022-10-18T03:26:55.306Z,25.85
2022-10-18T03:30:17.320Z,34.03
2022-10-18T03:33:39.430Z,28.23
2022-10-18T03:37:04.779Z,27.27
2022-10-18T03:40:24.427Z,22.10
2022-10-18T03:43:40.520Z,24.50
2022-10-18T03:47:00.292Z,22.50
2022-10-18T03:50:28.418Z,25.00
2022-10-18T03:53:51.297Z,26.38
2022-10-18T03:57:06.372Z,25.88
2022-10-18T04:00:29.283Z,23.00
2022-10-18T04:03:49.364Z,22.47
2022-10-18T04:07:09.463Z,27.43
2022-10-18T04:10:30.323Z,25.02
2022-10-18T04:13:49.186Z,22.60
2022-10-18T04:16:56.449Z,25.85
2022-10-18T04:20:05.947Z,27.37
2022-10-18T04:23:27.900Z,25.37
2022-10-18T04:26:47.914Z,23.90
2022-10-18T04:30:10.190Z,27.38
2022-10-18T04:33:29.323Z,22.50
2022-10-18T04:36:40.223Z,24.40
2022-10-18T04:40:03.201Z,24.17
2022-10-18T04:43:30.276Z,25.25
2022-10-18T04:46:52.117Z,25.30
2022-10-18T04:50:15.247Z,27.13
2022-10-18T04:53:36.104Z,25.07
2022-10-18T04:57:06.152Z,26.67
2022-10-18T05:00:29.068Z,31.00
2022-10-18T05:03:50.932Z,29.02
2022-10-18T05:07:14.100Z,27.77
2022-10-18T05:10:36.226Z,26.27
2022-10-18T05:13:56.082Z,25.33
2022-10-18T05:16:59.701Z,29.75
2022-10-18T05:20:02.669Z,28.63
2022-10-18T05:23:12.780Z,27.73
2022-10-18T05:26:35.157Z,28.17
2022-10-18T05:30:01.260Z,32.23
2022-10-18T05:33:32.428Z,34.80
2022-10-18T05:36:51.333Z,33.22
2022-10-18T05:40:14.034Z,31.67
2022-10-18T05:43:28.711Z,34.70
2022-10-18T05:46:45.746Z,31.57
2022-10-18T05:50:17.259Z,28.33
2022-10-18T05:53:38.011Z,30.90
2022-10-18T05:56:54.260Z,35.95
2022-10-18T06:00:15.085Z,33.23
2022-10-18T06:08:49.071Z,38.33
2022-10-18T06:12:17.356Z,25.98
2022-10-18T06:15:33.594Z,32.25
2022-10-18T06:19:02.570Z,29.30
2022-10-18T06:22:09.447Z,27.17
2022-10-18T06:25:34.482Z,31.73
2022-10-18T06:28:41.626Z,29.13
2022-10-18T06:31:55.286Z,31.15
2022-10-18T06:34:58.288Z,27.87
2022-10-18T06:38:58.048Z,25.10
2022-10-18T06:42:22.621Z,28.80
2022-10-18T06:45:50.906Z,24.42
2022-10-18T06:49:22.167Z,33.33
2022-10-18T06:53:16.542Z,29.73
2022-10-18T06:57:07.343Z,57.73
2022-10-18T07:00:19.376Z,29.75
2022-10-18T07:03:25.040Z,27.55
2022-10-18T07:06:54.264Z,28.60
2022-10-18T07:10:01.278Z,27.63
2022-10-18T07:13:32.052Z,27.87
2022-10-18T07:17:01.900Z,28.08
2022-10-18T07:20:13.025Z,30.05
2022-10-18T07:23:29.059Z,33.25
2022-10-18T07:27:13.320Z,31.53
2022-10-18T07:30:41.606Z,30.73
2022-10-18T07:35:13.191Z,29.83
2022-10-18T07:38:53.435Z,26.42
2022-10-18T07:42:28.622Z,29.75
2022-10-18T07:51:10.246Z,26.73
2022-10-18T07:55:09.608Z,30.35
2022-10-18T08:03:27.910Z,32.78
2022-10-18T08:06:41.101Z,30.63
2022-10-18T08:10:20.674Z,33.20
2022-10-18T08:13:47.045Z,32.95
2022-10-18T08:17:07.020Z,30.80
2022-10-18T08:21:34.703Z,29.60
2022-10-18T08:30:59.078Z,28.77
2022-10-18T08:34:25.101Z,27.92
2022-10-18T08:37:44.058Z,28.83
2022-10-18T08:41:38.354Z,37.10
2022-10-18T08:46:04.139Z,35.53
2022-10-18T08:49:51.043Z,27.70
2022-10-18T08:59:24.738Z,25.38
2022-10-18T09:03:00.303Z,22.73
2022-10-18T09:16:04.955Z,23.30
2022-10-18T09:19:36.174Z,17.50
2022-10-18T09:22:51.440Z,14.13
2022-10-18T09:32:40.091Z,18.60
2022-10-18T09:36:26.027Z,14.65
2022-10-18T09:39:57.775Z,15.05
2022-10-18T09:48:26.368Z,15.40
2022-10-18T09:51:58.819Z,13.03
2022-10-18T09:55:27.421Z,13.52
2022-10-18T09:58:51.528Z,13.75
2022-10-18T10:02:52.394Z,15.55
2022-10-18T10:06:18.949Z,14.53
2022-10-18T10:10:16.766Z,15.83
2022-10-18T10:13:42.132Z,18.33
2022-10-18T10:16:51.739Z,15.45
2022-10-18T10:20:05.722Z,17.15
2022-10-18T10:23:39.315Z,14.30
2022-10-18T10:27:25.087Z,12.50
2022-10-18T10:30:45.162Z,16.50
2022-10-18T10:34:44.622Z,11.75
2022-10-18T10:37:58.471Z,12.07
2022-10-18T10:41:24.517Z,11.37
2022-10-18T10:44:40.086Z,10.40
2022-10-18T10:49:21.692Z,10.32
2022-10-18T10:52:57.464Z,11.70
2022-10-18T10:56:50.680Z,9.25
2022-10-18T11:00:57.470Z,14.33
2022-10-18T11:04:35.385Z,20.40
2022-10-18T11:08:23.942Z,81.07
2022-10-18T11:12:02.105Z,25.38
2022-10-18T11:20:25.896Z,7.90
2022-10-18T11:23:44.890Z,14.07
2022-10-18T11:27:09.908Z,13.27
2022-10-18T11:34:55.834Z,10.00
2022-10-18T11:38:53.858Z,12.47
2022-10-18T11:42:17.929Z,9.90
2022-10-18T11:46:35.475Z,10.73
2022-10-18T11:49:53.482Z,14.48
2022-10-18T11:53:37.722Z,11.00
2022-10-18T11:57:26.143Z,11.30
2022-10-18T12:00:55.158Z,10.43
2022-10-18T12:05:05.320Z,12.13
2022-10-18T12:08:45.456Z,13.32
2022-10-18T12:12:47.578Z,14.15
2022-10-18T12:16:50.515Z,12.27
2022-10-18T12:21:15.111Z,10.43
2022-10-18T12:24:35.475Z,12.57
2022-10-18T12:32:34.904Z,9.85
2022-10-18T12:36:07.220Z,11.57
2022-10-18T12:39:37.521Z,12.57
2022-10-18T12:43:00.313Z,12.77
2022-10-18T12:46:30.097Z,9.18
2022-10-18T12:49:52.886Z,9.13
2022-10-18T12:58:13.686Z,10.07
2022-10-18T13:01:35.874Z,7.43
2022-10-18T13:04:40.833Z,16.58
2022-10-18T13:07:46.701Z,9.88
2022-10-18T13:11:12.888Z,11.67
2022-10-18T13:14:25.991Z,10.23
2022-10-18T13:17:48.469Z,8.90
2022-10-18T13:21:17.827Z,10.50
2022-10-18T13:24:26.333Z,9.75
2022-10-18T13:27:49.103Z,8.37
2022-10-18T13:31:05.250Z,8.80
2022-10-18T13:34:31.372Z,7.45
2022-10-18T13:37:37.797Z,8.68
2022-10-18T13:40:43.132Z,10.82
2022-10-18T13:43:55.966Z,8.03
2022-10-18T13:47:05.818Z,8.63
2022-10-18T13:50:33.073Z,7.13
2022-10-18T13:53:59.754Z,13.23
2022-10-18T13:57:26.280Z,13.23
2022-10-18T14:01:06.909Z,9.13
2022-10-18T14:04:28.369Z,9.67
2022-10-18T14:08:12.694Z,9.25
2022-10-18T14:11:38.153Z,6.60
2022-10-18T14:14:58.580Z,10.25
2022-10-18T14:18:44.929Z,6.13
2022-10-18T14:22:30.530Z,7.13
2022-10-18T14:25:45.068Z,7.15
2022-10-18T14:29:20.440Z,12.00
2022-10-18T14:32:29.989Z,7.63
2022-10-18T14:35:35.758Z,9.13
2022-10-18T14:39:13.871Z,6.03
2022-10-18T14:42:35.906Z,9.45
2022-10-18T14:45:58.858Z,10.82
2022-10-18T14:49:19.962Z,9.32
2022-10-18T14:52:35.099Z,9.90
2022-10-18T14:56:06.794Z,9.17
2022-10-18T14:59:27.087Z,10.70
2022-10-18T15:02:36.467Z,10.38
2022-10-18T15:06:08.608Z,7.40
2022-10-18T15:09:33.690Z,11.53
2022-10-18T15:13:17.568Z,11.37
2022-10-18T15:16:19.317Z,11.43
2022-10-18T15:19:59.372Z,8.18
2022-10-18T15:23:32.131Z,10.07
2022-10-18T15:26:53.241Z,11.50
2022-10-18T15:30:21.331Z,12.20
2022-10-18T15:33:34.821Z,7.68
2022-10-18T15:36:39.219Z,9.52
2022-10-18T15:39:42.099Z,9.05
2022-10-18T15:42:47.124Z,9.20
2022-10-18T15:45:53.779Z,9.43
2022-10-18T15:49:18.824Z,11.52
2022-10-18T15:52:21.657Z,7.55
2022-10-18T15:55:31.591Z,9.52
2022-10-18T15:58:44.319Z,14.53
2022-10-18T16:01:47.670Z,12.10
2022-10-18T16:05:08.758Z,12.73
2022-10-18T16:08:28.973Z,14.32
2022-10-18T16:11:35.156Z,11.90
2022-10-18T16:14:39.183Z,13.43
2022-10-18T16:17:51.448Z,12.87
2022-10-18T16:21:14.506Z,12.48
2022-10-18T16:24:36.502Z,19.50
2022-10-18T16:27:59.566Z,17.13
2022-10-18T16:31:24.239Z,20.60
2022-10-18T16:34:43.453Z,20.63
2022-10-18T16:38:06.615Z,25.23
2022-10-18T16:41:29.458Z,13.85
2022-10-18T16:44:51.469Z,9.70
2022-10-18T16:48:12.466Z,14.47
2022-10-18T16:51:28.557Z,13.07
2022-10-18T16:54:42.980Z,9.68
2022-10-18T16:57:46.665Z,15.93
2022-10-18T17:00:52.096Z,13.50
2022-10-18T17:04:07.492Z,13.67
2022-10-18T17:07:31.459Z,17.13
2022-10-18T17:10:53.114Z,15.43
2022-10-18T17:14:03.122Z,15.10
2022-10-18T17:17:05.837Z,17.90
2022-10-18T17:20:21.327Z,18.17
2022-10-18T17:23:27.923Z,15.73
2022-10-18T17:26:44.470Z,18.50
2022-10-18T17:30:06.588Z,20.25
2022-10-18T17:33:30.379Z,14.70
2022-10-18T17:36:50.518Z,13.93
2022-10-18T17:39:53.560Z,22.40
2022-10-18T17:42:57.806Z,16.13
2022-10-18T17:46:19.703Z,19.80
2022-10-18T17:49:40.097Z,19.23
2022-10-18T17:52:49.074Z,20.87
2022-10-18T17:56:02.409Z,20.73
2022-10-18T17:59:12.729Z,19.20
2022-10-18T18:02:47.359Z,18.05
2022-10-18T18:06:29.301Z,23.42
2022-10-18T18:09:49.343Z,21.27
2022-10-18T18:13:05.340Z,16.33
2022-10-18T18:16:34.416Z,21.67
2022-10-18T18:23:08.327Z,18.05
2022-10-18T18:26:42.278Z,20.47
2022-10-18T18:30:08.137Z,16.50
2022-10-18T18:33:33.113Z,20.10
2022-10-18T18:36:55.060Z,17.55
2022-10-18T18:40:16.083Z,19.75
2022-10-18T18:43:38.011Z,20.73
2022-10-18T18:46:48.054Z,20.53
2022-10-18T18:50:11.194Z,21.25
2022-10-18T18:53:46.213Z,19.95
2022-10-18T18:57:05.356Z,19.85
2022-10-18T19:00:28.194Z,24.70
2022-10-18T19:03:51.175Z,21.03
2022-10-18T19:07:14.219Z,19.20
2022-10-18T19:10:37.093Z,20.77
2022-10-18T19:13:48.863Z,21.65
2022-10-18T19:17:14.208Z,25.57
2022-10-18T19:20:43.054Z,24.40
2022-10-18T19:24:00.171Z,18.45
2022-10-18T19:27:20.189Z,21.98
2022-10-18T19:30:49.948Z,26.88
2022-10-18T19:34:07.270Z,25.17
2022-10-18T19:37:27.217Z,26.07
2022-10-18T19:40:51.594Z,29.92
2022-10-18T19:44:13.048Z,26.75
2022-10-18T19:47:33.128Z,26.83
2022-10-18T19:50:54.130Z,25.67
2022-10-18T19:54:14.065Z,24.67
2022-10-18T19:57:35.634Z,30.65
2022-10-18T20:00:56.336Z,25.00
2022-10-18T20:03:59.645Z,27.20
2022-10-18T20:07:03.240Z,25.97
2022-10-18T20:10:23.660Z,26.50
2022-10-18T20:13:46.021Z,26.33
2022-10-18T20:16:59.800Z,26.52
2022-10-18T20:20:17.018Z,29.27
2022-10-18T20:23:49.801Z,27.57
2022-10-18T20:27:10.826Z,28.73
2022-10-18T20:30:32.769Z,30.20
2022-10-18T20:33:55.915Z,27.75
2022-10-18T20:37:16.204Z,30.70
2022-10-18T20:40:29.773Z,28.70
2022-10-18T20:43:53.878Z,30.07
2022-10-18T20:47:23.956Z,32.58
2022-10-18T20:50:32.047Z,30.88
2022-10-18T20:53:35.959Z,28.92
2022-10-18T20:56:45.478Z,31.20
2022-10-18T21:00:07.847Z,30.50
2022-10-18T21:03:30.870Z,29.88
2022-10-18T21:06:54.446Z,33.80
2022-10-18T21:10:16.838Z,26.55
2022-10-18T21:13:52.831Z,28.57
2022-10-18T21:17:21.792Z,27.20
2022-10-18T21:21:01.897Z,31.05
2022-10-18T21:24:26.942Z,27.58
2022-10-18T21:27:46.870Z,28.60
2022-10-18T21:31:20.042Z,29.07
2022-10-18T21:34:40.912Z,30.93
2022-10-18T21:37:56.836Z,29.27
2022-10-18T21:41:19.936Z,27.10
2022-10-18T21:44:43.793Z,27.08
2022-10-18T21:48:06.735Z,27.00
2022-10-18T21:51:20.834Z,26.83
2022-10-18T21:54:43.815Z,28.42
2022-10-18T21:58:10.906Z,28.73
2022-10-18T22:01:32.489Z,30.33
2022-10-18T22:04:53.832Z,29.20
2022-10-18T22:08:14.726Z,24.97
2022-10-18T22:11:34.824Z,23.77
2022-10-18T22:14:50.879Z,23.67
2022-10-18T22:18:17.953Z,23.05
2022-10-18T22:21:20.988Z,24.17
2022-10-18T22:24:24.767Z,29.93
2022-10-18T22:27:45.304Z,29.30
2022-10-18T22:31:06.397Z,29.35
2022-10-18T22:34:33.321Z,28.10
2022-10-18T22:37:53.497Z,29.90
2022-10-18T22:41:15.480Z,29.37
2022-10-18T22:44:31.745Z,30.48
2022-10-18T22:47:51.605Z,29.98
2022-10-18T22:51:13.707Z,33.78
2022-10-18T22:54:36.561Z,27.33
2022-10-18T22:58:04.581Z,29.07
2022-10-18T23:01:26.442Z,27.30
2022-10-18T23:04:42.734Z,28.33
2022-10-18T23:08:02.585Z,31.00
2022-10-18T23:11:36.630Z,27.83
2022-10-18T23:14:57.354Z,26.27
2022-10-18T23:18:19.398Z,28.95
2022-10-18T23:21:41.449Z,26.95
2022-10-18T23:25:02.639Z,26.50
2022-10-18T23:28:25.623Z,25.40
2022-10-18T23:31:49.990Z,26.37
2022-10-18T23:35:11.378Z,25.00
2022-10-18T23:38:33.399Z,26.42
2022-10-18T23:41:55.431Z,24.60
2022-10-18T23:45:16.468Z,24.83
2022-10-18T23:48:39.469Z,24.63
2022-10-18T23:51:56.716Z,22.77
2022-10-18T23:55:18.461Z,25.08
2022-10-18T23:58:40.558Z,24.83
